createdAt,value
2017-03-20T00:01:38.737Z,1006.7
2017-03-20T00:02:41.090Z,1006.7
2017-03-20T00:03:43.945Z,1006.8
2017-03-20T00:04:46.524Z,1006.8
2017-03-20T00:05:49.378Z,1006.8
2017-03-20T00:06:52.034Z,1006.9
2017-03-20T00:07:54.384Z,1006.9
2017-03-20T00:08:57.238Z,1006.9
2017-03-20T00:09:59.951Z,1006.9
2017-03-20T00:11:02.542Z,1007
2017-03-20T00:12:05.192Z,1007
2017-03-20T00:13:07.899Z,1006.9
2017-03-20T00:14:10.250Z,1006.9
2017-03-20T00:15:13.105Z,1006.9
2017-03-20T00:16:15.950Z,1007
2017-03-20T00:17:18.603Z,1006.9
2017-03-20T00:18:20.816Z,1006.9
2017-03-20T00:19:23.668Z,1006.9
2017-03-20T00:20:26.392Z,1006.9
2017-03-20T00:21:29.104Z,1006.9
2017-03-20T00:22:31.748Z,1006.8
2017-03-20T00:23:34.093Z,1006.8
2017-03-20T00:24:36.947Z,1006.9
2017-03-20T00:25:39.661Z,1006.9
2017-03-20T00:26:42.374Z,1006.9
2017-03-20T00:27:45.024Z,1006.9
2017-03-20T00:28:47.384Z,1007
2017-03-20T00:29:50.241Z,1007
2017-03-20T00:30:52.818Z,1007
2017-03-20T00:31:55.531Z,1006.9
2017-03-20T00:32:58.564Z,1006.9
2017-03-20T00:34:00.780Z,1007
2017-03-20T00:35:03.635Z,1006.9
2017-03-20T00:36:05.904Z,1006.9
2017-03-20T00:37:08.749Z,1006.9
2017-03-20T00:38:11.462Z,1007
2017-03-20T00:39:13.811Z,1006.9
2017-03-20T00:41:19.577Z,1006.9
2017-03-20T00:42:21.923Z,1006.9
2017-03-20T00:43:25.025Z,1006.9
2017-03-20T00:44:27.242Z,1006.9
2017-03-20T00:45:30.095Z,1006.8
2017-03-20T00:46:32.440Z,1006.9
2017-03-20T00:47:35.154Z,1006.9
2017-03-20T00:48:38.260Z,1006.9
2017-03-20T00:49:40.473Z,1006.9
2017-03-20T00:50:43.324Z,1006.9
2017-03-20T00:51:45.667Z,1007
2017-03-20T00:52:48.516Z,1007
2017-03-20T00:53:51.538Z,1007
2017-03-20T00:54:53.751Z,1006.9
2017-03-20T00:55:56.470Z,1006.9
2017-03-20T00:56:59.182Z,1006.9
2017-03-20T00:58:01.524Z,1007
2017-03-20T00:59:04.625Z,1007
2017-03-20T01:00:06.972Z,1006.9
2017-03-20T01:01:09.821Z,1006.9
2017-03-20T01:02:12.539Z,1006.9
2017-03-20T01:03:14.879Z,1007
2017-03-20T01:04:18.035Z,1006.9
2017-03-20T01:05:20.383Z,1006.9
2017-03-20T01:06:23.099Z,1006.9
2017-03-20T01:08:28.354Z,1007
2017-03-20T01:09:30.998Z,1007
2017-03-20T01:10:33.407Z,1007
2017-03-20T01:11:36.322Z,1007
2017-03-20T01:12:38.670Z,1007
2017-03-20T01:13:41.532Z,1007
2017-03-20T01:14:44.503Z,1007
2017-03-20T01:15:46.759Z,1007
2017-03-20T01:16:49.608Z,1007
2017-03-20T01:17:51.953Z,1007
2017-03-20T01:19:57.473Z,1007
2017-03-20T01:20:59.824Z,1007
2017-03-20T01:22:02.671Z,1007
2017-03-20T01:23:05.248Z,1007
2017-03-20T01:24:07.895Z,1006.9
2017-03-20T01:25:11.046Z,1007
2017-03-20T01:26:13.398Z,1006.9
2017-03-20T01:28:18.686Z,1006.9
2017-03-20T01:29:21.410Z,1007
2017-03-20T01:30:24.058Z,1006.9
2017-03-20T01:31:26.401Z,1007
2017-03-20T01:32:29.248Z,1007
2017-03-20T01:33:31.598Z,1007.1
2017-03-20T01:34:34.447Z,1007.1
2017-03-20T01:35:37.603Z,1007.1
2017-03-20T01:36:39.813Z,1007
2017-03-20T01:37:42.525Z,1007.1
2017-03-20T01:38:44.867Z,1007.1
2017-03-20T01:39:47.717Z,1007.1
2017-03-20T01:40:53.802Z,1007
2017-03-20T01:41:53.140Z,1007
2017-03-20T01:42:55.485Z,1007
2017-03-20T01:43:58.333Z,1007
2017-03-20T01:45:01.117Z,1007
2017-03-20T01:46:03.885Z,1007
2017-03-20T01:47:06.099Z,1006.9
2017-03-20T01:48:08.946Z,1006.9
2017-03-20T01:49:11.664Z,1006.9
2017-03-20T01:50:14.018Z,1007
2017-03-20T01:51:16.868Z,1007.1
2017-03-20T01:52:19.747Z,1007
2017-03-20T01:53:22.094Z,1007
2017-03-20T01:54:24.943Z,1007
2017-03-20T01:55:27.293Z,1007
2017-03-20T01:56:30.182Z,1007
2017-03-20T01:57:32.898Z,1007
2017-03-20T01:58:35.244Z,1007
2017-03-20T01:59:05.891Z,1007
2017-03-20T01:59:38.043Z,1007.1
2017-03-20T02:00:40.895Z,1007.1
2017-03-20T02:01:43.238Z,1007.2
2017-03-20T02:02:46.091Z,1007.2
2017-03-20T02:03:48.445Z,1007.2
2017-03-20T02:04:51.297Z,1007.3
2017-03-20T02:05:54.149Z,1007.3
2017-03-20T02:06:56.408Z,1007.2
2017-03-20T02:07:59.314Z,1007.1
2017-03-20T02:09:01.671Z,1007.1
2017-03-20T02:10:04.530Z,1007.1
2017-03-20T02:11:07.379Z,1007.1
2017-03-20T02:12:09.774Z,1007.1
2017-03-20T02:13:12.491Z,1007.1
2017-03-20T02:14:15.343Z,1007
2017-03-20T02:15:17.559Z,1007.1
2017-03-20T02:16:20.407Z,1007.1
2017-03-20T02:17:23.369Z,1007.1
2017-03-20T02:18:25.710Z,1007.1
2017-03-20T02:19:28.564Z,1007.1
2017-03-20T02:20:30.917Z,1007.1
2017-03-20T02:21:33.768Z,1007.1
2017-03-20T02:22:36.414Z,1007
2017-03-20T02:23:39.129Z,1007.1
2017-03-20T02:24:41.471Z,1007.1
2017-03-20T02:25:44.190Z,1007
2017-03-20T02:26:47.036Z,1007.1
2017-03-20T02:27:50.057Z,1007.1
2017-03-20T02:28:52.138Z,1007.1
2017-03-20T02:29:54.988Z,1007.1
2017-03-20T02:30:57.336Z,1007.1
2017-03-20T02:32:00.055Z,1007.1
2017-03-20T02:33:03.153Z,1007.1
2017-03-20T02:34:05.367Z,1007.1
2017-03-20T02:35:08.083Z,1007.2
2017-03-20T02:36:10.928Z,1007.2
2017-03-20T02:37:13.640Z,1007.2
2017-03-20T02:38:16.207Z,1007.2
2017-03-20T02:39:18.918Z,1007.2
2017-03-20T02:40:21.270Z,1007.2
2017-03-20T02:41:24.122Z,1007.2
2017-03-20T02:42:26.830Z,1007.2
2017-03-20T02:43:29.327Z,1007.3
2017-03-20T02:44:32.181Z,1007.3
2017-03-20T02:45:34.391Z,1007.3
2017-03-20T02:46:37.234Z,1007.3
2017-03-20T02:47:40.084Z,1007.3
2017-03-20T02:48:42.737Z,1007.3
2017-03-20T02:49:45.085Z,1007.3
2017-03-20T02:50:47.934Z,1007.2
2017-03-20T02:51:50.279Z,1007.2
2017-03-20T02:52:53.129Z,1007.2
2017-03-20T02:53:56.146Z,1007.1
2017-03-20T02:54:58.493Z,1007.2
2017-03-20T02:56:01.215Z,1007.2
2017-03-20T02:57:03.927Z,1007.3
2017-03-20T02:58:06.271Z,1007.2
2017-03-20T02:59:09.434Z,1007.2
2017-03-20T03:00:11.778Z,1007.2
2017-03-20T03:01:14.123Z,1007.2
2017-03-20T03:02:17.017Z,1007.3
2017-03-20T03:03:19.736Z,1007.2
2017-03-20T03:04:22.388Z,1007.3
2017-03-20T03:05:24.732Z,1007.3
2017-03-20T03:06:27.806Z,1007.3
2017-03-20T03:07:30.149Z,1007.4
2017-03-20T03:08:32.991Z,1007.3
2017-03-20T03:09:35.642Z,1007.3
2017-03-20T03:10:37.994Z,1007.3
2017-03-20T03:11:40.771Z,1007.4
2017-03-20T03:12:43.347Z,1007.4
2017-03-20T03:14:49.278Z,1007.4
2017-03-20T03:15:51.624Z,1007.4
2017-03-20T03:16:53.970Z,1007.4
2017-03-20T03:17:56.726Z,1007.4
2017-03-20T03:18:59.577Z,1007.4
2017-03-20T03:20:02.046Z,1007.4
2017-03-20T03:21:04.765Z,1007.4
2017-03-20T03:22:07.477Z,1007.5
2017-03-20T03:23:10.192Z,1007.5
2017-03-20T03:24:12.538Z,1007.5
2017-03-20T03:25:15.506Z,1007.5
2017-03-20T03:26:17.851Z,1007.5
2017-03-20T03:27:20.703Z,1007.5
2017-03-20T03:28:23.418Z,1007.5
2017-03-20T03:29:25.631Z,1007.5
2017-03-20T03:30:28.735Z,1007.5
2017-03-20T03:31:31.080Z,1007.5
2017-03-20T03:32:33.928Z,1007.6
2017-03-20T03:33:36.312Z,1007.6
2017-03-20T03:34:39.175Z,1007.5
2017-03-20T03:35:41.831Z,1007.6
2017-03-20T03:36:44.183Z,1007.6
2017-03-20T03:37:46.905Z,1007.6
2017-03-20T03:38:49.756Z,1007.7
2017-03-20T03:40:55.272Z,1007.6
2017-03-20T03:41:57.618Z,1007.7
2017-03-20T03:43:00.471Z,1007.7
2017-03-20T03:44:02.817Z,1007.7
2017-03-20T03:45:05.666Z,1007.7
2017-03-20T03:46:08.319Z,1007.7
2017-03-20T03:47:10.674Z,1007.7
2017-03-20T03:48:13.529Z,1007.8
2017-03-20T03:49:16.383Z,1007.8
2017-03-20T03:50:19.106Z,1007.8
2017-03-20T03:51:21.595Z,1007.9
2017-03-20T03:52:24.178Z,1007.8
2017-03-20T03:54:29.301Z,1007.9
2017-03-20T03:55:31.907Z,1007.9
2017-03-20T03:56:35.013Z,1007.9
2017-03-20T03:57:37.360Z,1007.9
2017-03-20T03:58:40.214Z,1008
2017-03-20T03:59:42.571Z,1007.9
2017-03-20T04:00:45.428Z,1007.9
2017-03-20T04:01:48.029Z,1007.9
2017-03-20T04:02:50.883Z,1007.9
2017-03-20T04:03:53.278Z,1008
2017-03-20T04:04:56.131Z,1007.9
2017-03-20T04:05:58.484Z,1008
2017-03-20T04:07:01.642Z,1008
2017-03-20T04:08:03.852Z,1008
2017-03-20T04:09:06.573Z,1008
2017-03-20T04:10:09.294Z,1008
2017-03-20T04:11:12.011Z,1008
2017-03-20T04:12:14.617Z,1008
2017-03-20T04:13:16.969Z,1008
2017-03-20T04:14:19.820Z,1008
2017-03-20T04:15:22.408Z,1008
2017-03-20T04:16:25.128Z,1008.1
2017-03-20T04:17:28.102Z,1008
2017-03-20T04:18:30.447Z,1008
2017-03-20T04:19:32.798Z,1008
2017-03-20T04:20:35.525Z,1008.1
2017-03-20T04:21:38.386Z,1008.1
2017-03-20T04:22:41.233Z,1008.1
2017-03-20T04:23:43.453Z,1008.1
2017-03-20T04:24:46.315Z,1008.1
2017-03-20T04:25:49.169Z,1008.1
2017-03-20T04:26:51.382Z,1008.1
2017-03-20T04:27:54.538Z,1008.1
2017-03-20T04:28:56.895Z,1008.1
2017-03-20T04:29:59.749Z,1008.1
2017-03-20T04:31:02.097Z,1008.1
2017-03-20T04:32:04.576Z,1008.2
2017-03-20T04:33:07.735Z,1008.2
2017-03-20T04:34:10.092Z,1008.2
2017-03-20T04:35:12.954Z,1008.2
2017-03-20T04:36:15.335Z,1008.2
2017-03-20T04:37:18.193Z,1008.2
2017-03-20T04:38:20.845Z,1008.2
2017-03-20T04:39:23.197Z,1008.2
2017-03-20T04:40:26.049Z,1008.3
2017-03-20T04:41:28.589Z,1008.3
2017-03-20T04:42:31.442Z,1008.3
2017-03-20T04:43:34.091Z,1008.3
2017-03-20T04:44:36.306Z,1008.3
2017-03-20T04:45:39.157Z,1008.3
2017-03-20T04:46:42.006Z,1008.3
2017-03-20T04:47:44.353Z,1008.3
2017-03-20T04:48:47.512Z,1008.3
2017-03-20T04:49:49.868Z,1008.3
2017-03-20T04:50:52.584Z,1008.3
2017-03-20T04:51:54.926Z,1008.3
2017-03-20T04:52:57.642Z,1008.3
2017-03-20T04:54:00.797Z,1008.2
2017-03-20T04:55:03.147Z,1008.3
2017-03-20T04:56:05.867Z,1008.2
2017-03-20T04:57:08.221Z,1008.2
2017-03-20T04:58:11.075Z,1008.2
2017-03-20T04:59:13.678Z,1008.2
2017-03-20T05:00:16.538Z,1008.2
2017-03-20T05:01:18.886Z,1008.2
2017-03-20T05:02:21.741Z,1008.2
2017-03-20T05:03:24.094Z,1008.2
2017-03-20T05:05:29.610Z,1008.2
2017-03-20T05:06:31.960Z,1008.2
2017-03-20T05:07:34.675Z,1008.1
2017-03-20T05:08:37.263Z,1008.1
2017-03-20T05:09:40.119Z,1008.2
2017-03-20T05:10:43.134Z,1008.2
2017-03-20T05:11:45.351Z,1008.1
2017-03-20T05:12:48.204Z,1008.2
2017-03-20T05:13:50.918Z,1008.1
2017-03-20T05:14:53.137Z,1008.2
2017-03-20T05:15:56.292Z,1008.2
2017-03-20T05:16:58.644Z,1008.2
2017-03-20T05:18:01.374Z,1008.2
2017-03-20T05:19:03.743Z,1008.2
2017-03-20T05:20:06.594Z,1008.1
2017-03-20T05:21:09.802Z,1008.1
2017-03-20T05:22:12.150Z,1008.1
2017-03-20T05:23:14.497Z,1008.1
2017-03-20T05:24:17.350Z,1008.1
2017-03-20T05:25:19.699Z,1008.1
2017-03-20T05:26:22.804Z,1008.1
2017-03-20T05:27:25.151Z,1008.1
2017-03-20T05:28:28.000Z,1008.1
2017-03-20T05:29:30.217Z,1008.2
2017-03-20T05:30:33.066Z,1008.2
2017-03-20T05:31:36.083Z,1008.2
2017-03-20T05:32:38.433Z,1008.1
2017-03-20T05:33:41.154Z,1008.1
2017-03-20T05:34:43.875Z,1008.2
2017-03-20T05:35:46.601Z,1008.2
2017-03-20T05:36:49.199Z,1008.2
2017-03-20T05:37:51.547Z,1008.2
2017-03-20T05:38:54.404Z,1008.2
2017-03-20T05:39:57.123Z,1008.2
2017-03-20T05:40:59.477Z,1008.2
2017-03-20T05:42:02.631Z,1008.2
2017-03-20T05:43:04.843Z,1008.2
2017-03-20T05:44:07.561Z,1008.2
2017-03-20T05:45:10.424Z,1008.2
2017-03-20T05:46:12.774Z,1008.2
2017-03-20T05:47:15.886Z,1008.3
2017-03-20T05:48:18.240Z,1008.3
2017-03-20T05:49:20.963Z,1008.3
2017-03-20T05:50:23.318Z,1008.4
2017-03-20T05:51:26.174Z,1008.4
2017-03-20T05:52:28.830Z,1008.5
2017-03-20T05:53:31.179Z,1008.4
2017-03-20T05:54:34.040Z,1008.4
2017-03-20T05:56:39.161Z,1008.4
2017-03-20T05:57:42.372Z,1008.4
2017-03-20T05:58:44.723Z,1008.4
2017-03-20T05:59:47.079Z,1008.5
2017-03-20T06:00:49.934Z,1008.4
2017-03-20T06:01:52.784Z,1008.4
2017-03-20T06:02:55.391Z,1008.4
2017-03-20T06:03:57.742Z,1008.4
2017-03-20T06:05:00.595Z,1008.4
2017-03-20T06:06:03.449Z,1008.4
2017-03-20T06:08:09.010Z,1008.4
2017-03-20T06:09:11.357Z,1008.4
2017-03-20T06:11:16.437Z,1008.5
2017-03-20T06:12:19.019Z,1008.5
2017-03-20T06:13:22.175Z,1008.5
2017-03-20T06:14:24.524Z,1008.5
2017-03-20T06:15:27.307Z,1008.5
2017-03-20T06:16:29.717Z,1008.5
2017-03-20T06:17:32.567Z,1008.5
2017-03-20T06:18:35.222Z,1008.6
2017-03-20T06:19:37.608Z,1008.6
2017-03-20T06:20:40.465Z,1008.6
2017-03-20T06:23:48.380Z,1008.7
2017-03-20T06:24:50.967Z,1008.6
2017-03-20T06:25:53.819Z,1008.7
2017-03-20T06:26:56.173Z,1008.6
2017-03-20T06:27:58.892Z,1008.6
2017-03-20T06:29:01.920Z,1008.6
2017-03-20T06:30:04.268Z,1008.6
2017-03-20T06:31:06.989Z,1008.6
2017-03-20T06:32:09.345Z,1008.6
2017-03-20T06:33:12.082Z,1008.6
2017-03-20T06:35:17.642Z,1008.6
2017-03-20T06:38:25.700Z,1008.6
2017-03-20T06:39:28.424Z,1008.7
2017-03-20T06:40:31.077Z,1008.7
2017-03-20T06:41:33.431Z,1008.7
2017-03-20T06:42:36.283Z,1008.7
2017-03-20T06:43:38.635Z,1008.7
2017-03-20T06:44:41.561Z,1008.7
2017-03-20T06:45:44.235Z,1008.7
2017-03-20T06:46:46.950Z,1008.7
2017-03-20T06:47:49.226Z,1008.7
2017-03-20T06:48:52.081Z,1008.7
2017-03-20T06:52:00.553Z,1008.7
2017-03-20T06:54:05.176Z,1008.8
2017-03-20T06:55:08.037Z,1008.7
2017-03-20T07:00:21.737Z,1008.8
2017-03-20T07:01:23.948Z,1008.8
2017-03-20T07:02:26.801Z,1008.8
2017-03-20T07:03:29.150Z,1008.8
2017-03-20T07:04:32.004Z,1008.8
2017-03-20T07:05:35.102Z,1008.8
2017-03-20T07:07:39.851Z,1008.9
2017-03-20T07:08:42.704Z,1008.8
2017-03-20T07:10:48.136Z,1008.9
2017-03-20T07:11:50.484Z,1008.9
2017-03-20T07:12:53.206Z,1008.9
2017-03-20T07:13:56.067Z,1008.9
2017-03-20T07:14:58.787Z,1008.9
2017-03-20T07:16:01.807Z,1008.9
2017-03-20T07:17:04.158Z,1008.9
2017-03-20T07:18:06.506Z,1008.9
2017-03-20T07:19:09.365Z,1008.8
2017-03-20T07:21:14.882Z,1008.8
2017-03-20T07:22:17.104Z,1008.8
2017-03-20T07:23:19.829Z,1008.8
2017-03-20T07:25:25.083Z,1008.8
2017-03-20T07:26:28.237Z,1008.8
2017-03-20T07:27:30.449Z,1008.8
2017-03-20T07:29:35.709Z,1008.8
2017-03-20T07:30:38.560Z,1008.7
2017-03-20T07:31:41.580Z,1008.8
2017-03-20T07:32:43.934Z,1008.7
2017-03-20T07:34:49.066Z,1008.7
2017-03-20T07:35:51.927Z,1008.8
2017-03-20T07:36:55.083Z,1008.7
2017-03-20T07:37:57.432Z,1008.7
2017-03-20T07:38:59.778Z,1008.7
2017-03-20T07:40:02.635Z,1008.7
2017-03-20T07:41:05.363Z,1008.7
2017-03-20T07:43:10.743Z,1008.7
2017-03-20T07:44:13.095Z,1008.7
2017-03-20T07:45:15.811Z,1008.8
2017-03-20T07:46:18.664Z,1008.7
2017-03-20T07:47:21.380Z,1008.7
2017-03-20T07:48:24.028Z,1008.7
2017-03-20T07:49:27.811Z,1008.8
2017-03-20T07:50:29.496Z,1008.7
2017-03-20T07:51:32.213Z,1008.7
2017-03-20T07:52:34.615Z,1008.7
2017-03-20T07:53:37.724Z,1008.7
2017-03-20T07:54:40.075Z,1008.8
2017-03-20T07:55:42.436Z,1008.7
2017-03-20T07:56:45.289Z,1008.8
2017-03-20T07:57:48.142Z,1008.8
2017-03-20T07:58:50.750Z,1008.7
2017-03-20T07:59:53.474Z,1008.7
2017-03-20T08:00:55.827Z,1008.7
2017-03-20T08:01:58.550Z,1008.7
2017-03-20T08:03:01.408Z,1008.7
2017-03-20T08:05:06.974Z,1008.7
2017-03-20T08:06:09.325Z,1008.8
2017-03-20T08:07:12.180Z,1008.8
2017-03-20T08:08:14.896Z,1008.8
2017-03-20T08:09:17.249Z,1008.8
2017-03-20T08:10:20.591Z,1008.8
2017-03-20T08:11:22.939Z,1008.7
2017-03-20T08:12:25.285Z,1008.8
2017-03-20T08:13:28.138Z,1008.8
2017-03-20T08:14:30.995Z,1008.8
2017-03-20T08:15:33.600Z,1008.7
2017-03-20T08:16:35.947Z,1008.7
2017-03-20T08:17:38.837Z,1008.8
2017-03-20T08:18:41.561Z,1008.7
2017-03-20T08:19:44.422Z,1008.7
2017-03-20T08:20:47.394Z,1008.7
2017-03-20T08:21:49.750Z,1008.7
2017-03-20T08:22:52.471Z,1008.7
2017-03-20T08:23:55.193Z,1008.6
2017-03-20T08:24:57.551Z,1008.7
2017-03-20T08:26:00.659Z,1008.8
2017-03-20T08:27:02.870Z,1008.8
2017-03-20T08:28:05.587Z,1008.7
2017-03-20T08:29:08.313Z,1008.8
2017-03-20T08:30:11.171Z,1008.8
2017-03-20T08:31:13.773Z,1008.9
2017-03-20T08:32:16.623Z,1008.9
2017-03-20T08:33:18.969Z,1008.9
2017-03-20T08:34:21.692Z,1008.9
2017-03-20T08:35:24.546Z,1009
2017-03-20T08:36:27.197Z,1009
2017-03-20T08:37:30.046Z,1008.9
2017-03-20T08:38:32.392Z,1008.9
2017-03-20T08:39:35.244Z,1009
2017-03-20T08:40:38.098Z,1008.9
2017-03-20T08:41:40.748Z,1008.9
2017-03-20T08:42:43.091Z,1009
2017-03-20T08:43:45.951Z,1008.9
2017-03-20T08:44:48.805Z,1009
2017-03-20T08:45:51.159Z,1008.9
2017-03-20T08:46:54.309Z,1008.9
2017-03-20T08:47:56.655Z,1009
2017-03-20T08:48:59.520Z,1008.9
2017-03-20T08:50:01.926Z,1008.9
2017-03-20T08:51:04.786Z,1008.9
2017-03-20T08:52:07.442Z,1009
2017-03-20T08:53:10.162Z,1009
2017-03-20T08:54:12.849Z,1008.9
2017-03-20T08:55:15.203Z,1008.9
2017-03-20T08:57:21.263Z,1009
2017-03-20T08:58:23.638Z,1008.9
2017-03-20T08:59:25.988Z,1008.9
2017-03-20T09:00:28.844Z,1008.9
2017-03-20T09:01:31.560Z,1009
2017-03-20T09:02:34.585Z,1008.9
2017-03-20T09:03:37.053Z,1008.9
2017-03-20T09:04:39.406Z,1008.9
2017-03-20T09:05:42.257Z,1008.9
2017-03-20T09:06:44.656Z,1008.9
2017-03-20T09:07:47.816Z,1008.9
2017-03-20T09:08:50.170Z,1008.9
2017-03-20T09:09:52.889Z,1008.9
2017-03-20T09:10:55.612Z,1008.9
2017-03-20T09:11:58.341Z,1008.9
2017-03-20T09:13:01.445Z,1008.9
2017-03-20T09:14:03.660Z,1009
2017-03-20T09:15:06.509Z,1008.9
2017-03-20T09:16:09.093Z,1009
2017-03-20T09:17:11.940Z,1008.9
2017-03-20T09:18:14.541Z,1009
2017-03-20T09:19:17.391Z,1009
2017-03-20T09:20:20.110Z,1009
2017-03-20T09:21:22.453Z,1009
2017-03-20T09:22:25.182Z,1008.9
2017-03-20T09:23:28.205Z,1008.9
2017-03-20T09:24:30.561Z,1008.9
2017-03-20T09:25:33.277Z,1008.9
2017-03-20T09:26:35.927Z,1008.9
2017-03-20T09:27:38.773Z,1008.9
2017-03-20T09:28:41.927Z,1008.9
2017-03-20T09:29:44.279Z,1008.9
2017-03-20T09:30:46.864Z,1008.9
2017-03-20T09:32:52.121Z,1008.9
2017-03-20T09:33:55.092Z,1008.8
2017-03-20T09:34:57.943Z,1008.9
2017-03-20T09:36:00.663Z,1008.9
2017-03-20T09:37:02.876Z,1008.9
2017-03-20T09:38:05.596Z,1008.9
2017-03-20T09:40:11.341Z,1008.8
2017-03-20T09:41:13.781Z,1008.9
2017-03-20T09:42:16.500Z,1009
2017-03-20T09:43:19.406Z,1009
2017-03-20T09:44:22.125Z,1008.9
2017-03-20T09:45:25.112Z,1009
2017-03-20T09:46:27.332Z,1008.9
2017-03-20T09:47:30.181Z,1008.9
2017-03-20T09:48:33.030Z,1008.9
2017-03-20T09:49:35.387Z,1008.9
2017-03-20T09:50:38.774Z,1008.8
2017-03-20T09:51:40.987Z,1008.8
2017-03-20T09:52:43.736Z,1008.8
2017-03-20T09:53:46.460Z,1008.8
2017-03-20T09:54:49.313Z,1008.9
2017-03-20T09:55:52.384Z,1008.8
2017-03-20T09:56:54.733Z,1008.8
2017-03-20T09:57:57.449Z,1008.8
2017-03-20T10:00:02.753Z,1008.9
2017-03-20T10:01:05.772Z,1008.9
2017-03-20T10:02:07.988Z,1009
2017-03-20T10:03:10.900Z,1008.9
2017-03-20T10:04:13.803Z,1008.9
2017-03-20T10:05:16.153Z,1008.9
2017-03-20T10:06:19.496Z,1009
2017-03-20T10:07:21.575Z,1009
2017-03-20T10:08:24.428Z,1008.9
2017-03-20T10:09:27.152Z,1009
2017-03-20T10:10:30.004Z,1009
2017-03-20T10:11:33.162Z,1008.9
2017-03-20T10:12:35.375Z,1009
2017-03-20T10:13:38.287Z,1009.1
2017-03-20T10:14:40.638Z,1009
2017-03-20T10:15:43.488Z,1009
2017-03-20T10:16:46.641Z,1009
2017-03-20T10:17:48.854Z,1009.1
2017-03-20T10:18:51.703Z,1009
2017-03-20T10:19:54.561Z,1009
2017-03-20T10:20:56.969Z,1008.9
2017-03-20T10:22:00.122Z,1009
2017-03-20T10:24:05.379Z,1008.9
2017-03-20T10:25:07.830Z,1008.9
2017-03-20T10:26:10.680Z,1008.9
2017-03-20T10:27:13.838Z,1008.8
2017-03-20T10:28:16.326Z,1008.9
2017-03-20T10:29:18.687Z,1008.9
2017-03-20T10:31:24.314Z,1008.9
2017-03-20T10:32:27.345Z,1008.9
2017-03-20T10:33:30.069Z,1009
2017-03-20T10:34:32.422Z,1008.9
2017-03-20T10:35:35.141Z,1009
2017-03-20T10:41:51.836Z,1008.8
2017-03-20T10:51:16.756Z,1008.8
2017-03-20T10:52:19.105Z,1008.8
2017-03-20T10:53:21.452Z,1008.8
2017-03-20T10:54:24.172Z,1008.7
2017-03-20T10:55:27.027Z,1008.7
2017-03-20T10:56:30.045Z,1008.7
2017-03-20T10:57:32.624Z,1008.7
2017-03-20T10:58:35.474Z,1008.7
2017-03-20T10:59:37.826Z,1008.8
2017-03-20T11:00:40.914Z,1008.7
2017-03-20T11:01:44.067Z,1008.7
2017-03-20T11:02:46.411Z,1008.7
2017-03-20T11:03:48.796Z,1008.7
2017-03-20T11:04:51.649Z,1008.7
2017-03-20T11:05:54.506Z,1008.7
2017-03-20T11:06:57.522Z,1008.7
2017-03-20T11:07:59.733Z,1008.7
2017-03-20T11:09:02.593Z,1008.7
2017-03-20T11:10:05.450Z,1008.7
2017-03-20T11:11:08.170Z,1008.7
2017-03-20T11:12:11.055Z,1008.6
2017-03-20T11:13:13.768Z,1008.6
2017-03-20T11:14:16.121Z,1008.6
2017-03-20T11:15:19.212Z,1008.6
2017-03-20T11:16:21.569Z,1008.7
2017-03-20T11:17:24.674Z,1008.7
2017-03-20T11:18:27.398Z,1008.7
2017-03-20T11:19:29.805Z,1008.7
2017-03-20T11:20:32.663Z,1008.7
2017-03-20T11:21:35.381Z,1008.7
2017-03-20T11:22:38.487Z,1008.8
2017-03-20T11:23:40.838Z,1008.8
2017-03-20T11:24:43.422Z,1008.8
2017-03-20T11:25:46.138Z,1008.7
2017-03-20T11:26:48.997Z,1008.8
2017-03-20T11:27:52.149Z,1008.7
2017-03-20T11:28:54.510Z,1008.7
2017-03-20T11:31:00.140Z,1008.7
2017-03-20T11:32:02.489Z,1008.7
2017-03-20T11:33:05.599Z,1008.7
2017-03-20T11:34:08.320Z,1008.7
2017-03-20T11:35:10.903Z,1008.7
2017-03-20T11:36:13.619Z,1008.7
2017-03-20T11:37:16.471Z,1008.7
2017-03-20T11:38:19.497Z,1008.8
2017-03-20T11:39:21.851Z,1008.8
2017-03-20T11:40:24.571Z,1008.7
2017-03-20T11:41:27.291Z,1008.7
2017-03-20T11:42:30.005Z,1008.8
2017-03-20T11:43:33.022Z,1008.7
2017-03-20T11:44:35.175Z,1008.8
2017-03-20T11:45:38.039Z,1008.7
2017-03-20T11:47:43.300Z,1008.6
2017-03-20T11:48:46.380Z,1008.7
2017-03-20T11:49:49.231Z,1008.6
2017-03-20T11:50:51.953Z,1008.7
2017-03-20T11:51:54.677Z,1008.7
2017-03-20T11:54:00.237Z,1008.7
2017-03-20T11:55:02.585Z,1008.6
2017-03-20T11:56:05.535Z,1008.6
2017-03-20T11:57:08.253Z,1008.6
2017-03-20T11:58:10.963Z,1008.6
2017-03-20T11:59:14.032Z,1008.6
2017-03-20T12:00:16.388Z,1008.6
2017-03-20T12:01:19.100Z,1008.6
2017-03-20T12:02:21.683Z,1008.6
2017-03-20T12:03:24.404Z,1008.6
2017-03-20T12:05:30.422Z,1008.5
2017-03-20T12:06:32.833Z,1008.4
2017-03-20T12:07:35.557Z,1008.5
2017-03-20T12:08:38.277Z,1008.5
2017-03-20T12:09:40.687Z,1008.5
2017-03-20T12:10:43.707Z,1008.5
2017-03-20T12:11:46.425Z,1008.5
2017-03-20T12:12:49.274Z,1008.4
2017-03-20T12:13:51.696Z,1008.5
2017-03-20T12:14:54.417Z,1008.5
2017-03-20T12:15:57.441Z,1008.5
2017-03-20T12:17:00.021Z,1008.5
2017-03-20T12:18:02.879Z,1008.5
2017-03-20T12:19:05.232Z,1008.4
2017-03-20T12:20:08.093Z,1008.4
2017-03-20T12:21:11.304Z,1008.4
2017-03-20T12:22:13.650Z,1008.4
2017-03-20T12:23:16.367Z,1008.5
2017-03-20T12:24:19.087Z,1008.4
2017-03-20T12:25:21.939Z,1008.5
2017-03-20T12:26:24.597Z,1008.4
2017-03-20T12:27:27.314Z,1008.4
2017-03-20T12:28:29.901Z,1008.5
2017-03-20T12:29:32.761Z,1008.5
2017-03-20T12:30:35.478Z,1008.3
2017-03-20T12:31:38.497Z,1008.4
2017-03-20T12:32:40.717Z,1008.4
2017-03-20T12:33:43.573Z,1008.4
2017-03-20T12:34:46.357Z,1008.4
2017-03-20T12:35:49.215Z,1008.4
2017-03-20T12:36:51.871Z,1008.4
2017-03-20T12:37:54.289Z,1008.3
2017-03-20T12:38:57.146Z,1008.3
2017-03-20T12:39:59.862Z,1008.3
2017-03-20T12:41:02.716Z,1008.3
2017-03-20T12:42:05.822Z,1008.3
2017-03-20T12:43:08.038Z,1008.3
2017-03-20T12:44:10.762Z,1008.3
2017-03-20T12:45:13.486Z,1008.2
2017-03-20T12:46:16.203Z,1008.2
2017-03-20T12:47:19.360Z,1008.2
2017-03-20T12:49:24.487Z,1008.1
2017-03-20T12:50:27.343Z,1008.1
2017-03-20T12:51:30.057Z,1008.1
2017-03-20T12:52:33.159Z,1008.1
2017-03-20T12:53:35.379Z,1008.1
2017-03-20T12:54:38.097Z,1008.1
2017-03-20T12:55:40.826Z,1008
2017-03-20T12:56:43.545Z,1008
2017-03-20T12:57:46.621Z,1008
2017-03-20T12:59:51.750Z,1007.9
2017-03-20T13:00:54.615Z,1008
2017-03-20T13:01:57.469Z,1007.9
2017-03-20T13:03:00.129Z,1008
2017-03-20T13:04:02.848Z,1008
2017-03-20T13:05:05.559Z,1007.9
2017-03-20T13:06:08.411Z,1008
2017-03-20T13:07:10.764Z,1008
2017-03-20T13:08:13.924Z,1007.9
2017-03-20T13:09:16.274Z,1008
2017-03-20T13:10:19.191Z,1007.9
2017-03-20T13:11:22.044Z,1007.9
2017-03-20T13:12:24.443Z,1008
2017-03-20T13:13:27.596Z,1007.9
2017-03-20T13:14:29.952Z,1007.9
2017-03-20T13:15:32.810Z,1008
2017-03-20T13:16:35.659Z,1008
2017-03-20T13:17:38.239Z,1007.9
2017-03-20T13:18:41.348Z,1008
2017-03-20T13:19:43.563Z,1008
2017-03-20T13:20:46.420Z,1008
2017-03-20T13:21:49.268Z,1008
2017-03-20T13:22:51.982Z,1008
2017-03-20T13:23:54.947Z,1008
2017-03-20T13:24:57.529Z,1008
2017-03-20T13:26:00.388Z,1008
2017-03-20T13:27:03.106Z,1008.1
2017-03-20T13:28:05.822Z,1008.1
2017-03-20T13:29:08.913Z,1008.1
2017-03-20T13:30:11.121Z,1008.1
2017-03-20T13:31:13.970Z,1008.1
2017-03-20T13:33:19.268Z,1008.1
2017-03-20T13:34:22.289Z,1008.1
2017-03-20T13:35:24.638Z,1008.1
2017-03-20T13:36:27.422Z,1008.1
2017-03-20T13:37:30.143Z,1008.1
2017-03-20T13:38:33.031Z,1008.1
2017-03-20T13:39:36.190Z,1008.1
2017-03-20T13:40:38.539Z,1008.1
2017-03-20T13:41:41.250Z,1008
2017-03-20T13:43:46.509Z,1008
2017-03-20T13:44:49.479Z,1008
2017-03-20T13:46:54.742Z,1008
2017-03-20T13:47:57.456Z,1007.9
2017-03-20T13:49:00.308Z,1008
2017-03-20T13:50:03.194Z,1007.9
2017-03-20T13:51:05.912Z,1007.9
2017-03-20T13:52:08.626Z,1008
2017-03-20T13:53:11.349Z,1008
2017-03-20T13:55:16.911Z,1007.9
2017-03-20T13:56:19.331Z,1007.9
2017-03-20T13:57:22.044Z,1007.9
2017-03-20T13:58:25.135Z,1007.9
2017-03-20T13:59:27.991Z,1007.9
2017-03-20T14:00:30.644Z,1007.9
2017-03-20T14:01:32.996Z,1007.9
2017-03-20T14:02:35.862Z,1008
2017-03-20T14:03:38.718Z,1007.9
2017-03-20T14:04:41.572Z,1007.9
2017-03-20T14:06:46.949Z,1008
2017-03-20T14:07:49.803Z,1008.1
2017-03-20T14:08:52.523Z,1007.9
2017-03-20T14:09:54.877Z,1008
2017-03-20T14:10:58.099Z,1008
2017-03-20T14:12:00.806Z,1008.1
2017-03-20T14:18:17.144Z,1008
2017-03-20T14:19:20.001Z,1008